Time;durP1;ratioP1;P1;durP2;ratioP2;P2;SDS_P1;SDS_P2;PMS_P1;PMS_P2;Temp;Humidity;BMP_temperature;BMP_pressure;BME280_temperature;BME280_humidity;BME280_pressure;Samples;Min_cycle;Max_cycle;Signal;HPM_P1;HPM_P2
2022/10/31 00:00:25;;;;;;;;;;;;;;;19.83;46.52;95603.16;6102582;19;1746;-66
2022/10/31 00:02:31;;;;;;;;;;;;;;;19.82;46.44;95608.66;6117322;19;1760;-66
2022/10/31 00:04:34;;;;;;;;;;;;;;;19.82;46.57;95598.00;6120944;19;1336;-66
2022/10/31 00:06:37;;;;;;;;;;;;;;;19.81;46.83;95597.19;6118713;19;1774;-66
2022/10/31 00:08:41;;;;;;;;;;;;;;;19.82;46.75;95596.16;6121390;19;1861;-67
2022/10/31 00:10:45;;;;;;;;;;;;;;;19.83;46.47;95605.81;6121688;19;1448;-66
2022/10/31 00:12:48;;;;;;;;;;;;;;;19.83;46.45;95611.16;6092508;19;1654;-66
2022/10/31 00:14:52;;;;;;;;;;;;;;;19.82;46.72;95608.66;6121574;19;1711;-66
2022/10/31 00:16:55;;;;;;;;;;;;;;;19.82;46.34;95614.81;6119258;19;1790;-65
2022/10/31 00:19:02;;;;;;;;;;;;;;;19.83;46.31;95616.50;6121935;19;1629;-66
2022/10/31 00:21:06;;;;;;;;;;;;;;;19.83;46.66;95616.50;6119156;19;1782;-64
2022/10/31 00:23:09;;;;;;;;;;;;;;;19.81;46.41;95607.84;6100905;19;1755;-66
2022/10/31 00:25:13;;;;;;;;;;;;;;;19.81;46.68;95613.19;6118163;19;1660;-65
2022/10/31 00:27:16;;;;;;;;;;;;;;;19.81;46.70;95613.19;6118829;19;1821;-67
2022/10/31 00:29:20;;;;;;;;;;;;;;;19.81;46.46;95612.34;6119210;19;1853;-66
2022/10/31 00:31:23;;;;;;;;;;;;;;;19.81;46.75;95601.69;6121112;19;1754;-66
2022/10/31 00:33:26;;;;;;;;;;;;;;;19.82;46.37;95606.00;6119182;19;1616;-65
2022/10/31 00:35:33;;;;;;;;;;;;;;;19.82;46.72;95611.34;6090829;19;2136;-66
2022/10/31 00:37:36;;;;;;;;;;;;;;;19.82;46.48;95606.00;6118550;19;1766;-66
2022/10/31 00:39:39;;;;;;;;;;;;;;;19.82;46.90;95600.66;6119320;19;1772;-68
2022/10/31 00:41:42;;;;;;;;;;;;;;;19.82;46.44;95609.47;6119579;19;1706;-66
2022/10/31 00:43:46;;;;;;;;;;;;;;;19.81;46.56;95599.84;6118432;19;1425;-65
2022/10/31 00:45:49;;;;;;;;;;;;;;;19.81;46.81;95605.19;6101284;19;1728;-67
2022/10/31 00:47:53;;;;;;;;;;;;;;;19.82;46.86;95603.34;6114499;19;1886;-66
2022/10/31 00:49:56;;;;;;;;;;;;;;;19.80;46.48;95603.50;6117260;19;1854;-66
2022/10/31 00:52:02;;;;;;;;;;;;;;;19.81;46.83;95610.50;6118431;19;1524;-65
2022/10/31 00:54:05;;;;;;;;;;;;;;;19.83;46.84;95607.63;6120049;19;1645;-65
2022/10/31 00:56:09;;;;;;;;;;;;;;;19.81;46.69;95610.50;6120949;19;1638;-65
2022/10/31 00:58:12;;;;;;;;;;;;;;;19.81;46.65;95607.84;6092177;19;1762;-65
2022/10/31 01:00:16;;;;;;;;;;;;;;;19.81;46.78;95605.19;6118309;19;1764;-66
2022/10/31 01:02:19;;;;;;;;;;;;;;;19.81;46.95;95605.19;6119639;19;1635;-65
2022/10/31 01:04:23;;;;;;;;;;;;;;;19.81;47.03;95609.69;6118399;19;1657;-66
2022/10/31 01:06:26;;;;;;;;;;;;;;;19.81;46.87;95612.34;6119079;19;1422;-65
2022/10/31 01:08:32;;;;;;;;;;;;;;;19.81;46.82;95613.19;6106435;19;1559;-67
2022/10/31 01:10:35;;;;;;;;;;;;;;;19.81;46.99;95613.19;6111997;19;1842;-66
2022/10/31 01:12:39;;;;;;;;;;;;;;;19.81;47.25;95613.19;6119998;19;1848;-66
2022/10/31 01:14:45;;;;;;;;;;;;;;;19.82;47.27;95606.81;6120710;19;1805;-66
2022/10/31 01:16:48;;;;;;;;;;;;;;;19.82;47.10;95609.47;6118520;19;1746;-67
2022/10/31 01:18:51;;;;;;;;;;;;;;;19.82;47.08;95614.00;6120799;19;1731;-66
2022/10/31 01:21:05;;;;;;;;;;;;;;;19.81;47.12;95617.69;6091532;19;1720;-67
2022/10/31 01:23:08;;;;;;;;;;;;;;;19.83;47.30;95618.31;6118718;19;1809;-66
2022/10/31 01:25:15;;;;;;;;;;;;;;;19.80;47.35;95622.19;6116799;19;1674;-65
2022/10/31 01:27:18;;;;;;;;;;;;;;;19.82;47.04;95624.66;6117840;19;1752;-65
2022/10/31 01:29:21;;;;;;;;;;;;;;;19.81;47.48;95621.19;6118493;19;1872;-66
2022/10/31 01:31:27;;;;;;;;;;;;;;;19.81;47.14;95623.03;6094649;19;1738;-66
2022/10/31 01:33:30;;;;;;;;;;;;;;;19.82;47.46;95627.34;6117386;19;1664;-67
2022/10/31 01:35:33;;;;;;;;;;;;;;;19.81;47.57;95620.34;6116925;19;1763;-66
2022/10/31 01:37:37;;;;;;;;;;;;;;;19.82;47.68;95620.16;6118820;19;1762;-66
2022/10/31 01:39:40;;;;;;;;;;;;;;;19.81;47.59;95618.50;6120073;19;1742;-66
2022/10/31 01:41:47;;;;;;;;;;;;;;;19.81;47.42;95629.19;6115366;19;1671;-65
2022/10/31 01:43:52;;;;;;;;;;;;;;;19.81;47.45;95629.19;6090794;19;1757;-66
2022/10/31 01:45:57;;;;;;;;;;;;;;;19.81;47.58;95629.19;6123596;19;1742;-66
2022/10/31 01:48:00;;;;;;;;;;;;;;;19.81;47.67;95634.50;6125225;19;1363;-66
2022/10/31 01:50:05;;;;;;;;;;;;;;;19.81;47.88;95629.19;6123076;19;1873;-65
2022/10/31 01:52:12;;;;;;;;;;;;;;;19.82;47.86;95630.00;6124698;19;1471;-66
2022/10/31 01:54:18;;;;;;;;;;;;;;;19.82;47.76;95630.81;6097313;19;1624;-67
2022/10/31 01:56:21;;;;;;;;;;;;;;;19.81;48.23;95637.19;6121794;19;1438;-67
2022/10/31 01:58:28;;;;;;;;;;;;;;;19.83;47.69;95626.31;6122995;19;1731;-66
2022/10/31 02:00:31;;;;;;;;;;;;;;;19.82;48.09;95632.66;6125542;19;1513;-65
2022/10/31 02:02:35;;;;;;;;;;;;;;;19.81;48.16;95631.84;6124819;19;1763;-65
2022/10/31 02:04:39;;;;;;;;;;;;;;;19.82;47.66;95630.81;6122401;19;1647;-66
2022/10/31 02:06:47;;;;;;;;;;;;;;;19.81;48.17;95625.69;6097967;19;1768;-66
2022/10/31 02:08:51;;;;;;;;;;;;;;;19.83;48.31;95631.63;6123355;19;1754;-65
2022/10/31 02:10:54;;;;;;;;;;;;;;;19.82;47.87;95630.81;6120331;19;1841;-65
2022/10/31 02:12:59;;;;;;;;;;;;;;;19.83;48.07;95626.31;6125745;19;1732;-66
2022/10/31 02:15:06;;;;;;;;;;;;;;;19.82;47.90;95620.16;6126067;19;1741;-65
2022/10/31 02:17:09;;;;;;;;;;;;;;;19.82;48.08;95628.16;6098278;19;1667;-66
2022/10/31 02:19:16;;;;;;;;;;;;;;;19.82;48.05;95620.16;6123894;19;1687;-65
2022/10/31 02:21:21;;;;;;;;;;;;;;;19.82;48.15;95625.47;6125537;19;1766;-65
2022/10/31 02:23:39;;;;;;;;;;;;;;;19.81;47.96;95629.19;6123313;19;1627;-66
2022/10/31 02:25:54;;;;;;;;;;;;;;;19.83;47.84;95639.63;6123863;19;1762;-66
2022/10/31 02:28:18;;;;;;;;;;;;;;;19.79;47.95;95633.88;6114966;19;1749;-67
2022/10/31 02:30:26;;;;;;;;;;;;;;;19.82;47.84;95635.34;6105894;19;1855;-66
2022/10/31 02:32:37;;;;;;;;;;;;;;;19.82;47.96;95638.81;6122692;19;1699;-65
2022/10/31 02:34:45;;;;;;;;;;;;;;;19.81;48.01;95634.50;6123398;19;1383;-67
2022/10/31 02:36:55;;;;;;;;;;;;;;;19.82;48.03;95635.34;6122346;19;1754;-65
2022/10/31 02:39:04;;;;;;;;;;;;;;;19.84;48.11;95649.31;6121626;19;1651;-68
2022/10/31 02:41:12;;;;;;;;;;;;;;;19.84;48.16;95655.47;6095633;19;1756;-68
2022/10/31 02:43:19;;;;;;;;;;;;;;;19.87;47.74;95657.75;6124055;19;1738;-66
2022/10/31 02:45:28;;;;;;;;;;;;;;;19.86;48.16;95649.91;6123874;19;1758;-67
2022/10/31 02:47:36;;;;;;;;;;;;;;;19.85;48.16;95650.94;6124271;19;1762;-67
2022/10/31 02:49:42;;;;;;;;;;;;;;;19.86;48.62;95647.25;6122960;19;1672;-68
2022/10/31 02:51:46;;;;;;;;;;;;;;;19.85;48.10;95649.09;6097254;19;1800;-66
2022/10/31 02:53:49;;;;;;;;;;;;;;;19.84;48.25;95650.13;6122694;19;1644;-67
2022/10/31 02:55:57;;;;;;;;;;;;;;;19.85;48.39;95646.44;6121195;19;1650;-66
2022/10/31 02:58:03;;;;;;;;;;;;;;;19.84;48.32;95657.31;6121985;19;1632;-69
2022/10/31 03:00:08;;;;;;;;;;;;;;;19.84;48.06;95655.47;6122733;19;1719;-68
2022/10/31 03:02:20;;;;;;;;;;;;;;;19.85;48.03;95656.28;6111722;19;1678;-69
2022/10/31 03:04:39;;;;;;;;;;;;;;;19.84;48.36;95655.47;6108731;19;1734;-69
2022/10/31 03:06:48;;;;;;;;;;;;;;;19.83;48.02;95659.16;6122471;19;1738;-69
2022/10/31 03:08:56;;;;;;;;;;;;;;;19.84;48.36;95662.63;6123957;19;1647;-68
2022/10/31 03:11:01;;;;;;;;;;;;;;;19.84;48.36;95652.78;6121741;19;2058;-68
2022/10/31 03:13:09;;;;;;;;;;;;;;;19.83;48.23;95647.63;6122834;19;1755;-69
2022/10/31 03:15:16;;;;;;;;;;;;;;;19.84;48.18;95647.47;6092713;19;1644;-69
2022/10/31 03:17:24;;;;;;;;;;;;;;;19.83;48.15;95653.81;6121477;19;1735;-69
2022/10/31 03:19:30;;;;;;;;;;;;;;;19.83;48.29;95642.31;6119972;19;1441;-68
2022/10/31 03:21:38;;;;;;;;;;;;;;;19.85;47.94;95650.94;6121774;19;1827;-68
2022/10/31 03:23:45;;;;;;;;;;;;;;;19.84;48.22;95655.47;6122004;19;1692;-69
2022/10/31 03:25:50;;;;;;;;;;;;;;;19.85;48.34;95650.94;6094256;19;1600;-69
2022/10/31 03:27:54;;;;;;;;;;;;;;;19.86;48.28;95664.09;6120237;19;1704;-68
2022/10/31 03:29:58;;;;;;;;;;;;;;;19.87;47.67;95665.75;6120885;19;1865;-70
2022/10/31 03:32:04;;;;;;;;;;;;;;;19.86;47.58;95661.44;6122960;19;1652;-69
2022/10/31 03:34:08;;;;;;;;;;;;;;;19.86;47.81;95666.78;6123574;19;1625;-69
2022/10/31 03:36:13;;;;;;;;;;;;;;;19.85;47.75;95670.44;6117118;19;1657;-67
2022/10/31 03:38:17;;;;;;;;;;;;;;;19.85;47.86;95662.44;6106195;19;1677;-68
2022/10/31 03:40:24;;;;;;;;;;;;;;;19.85;47.92;95667.78;6120366;19;1652;-69
2022/10/31 03:42:28;;;;;;;;;;;;;;;19.85;48.05;95670.44;6123234;19;1799;-69
2022/10/31 03:44:32;;;;;;;;;;;;;;;19.83;47.97;95672.50;6122190;19;1625;-69
2022/10/31 03:46:36;;;;;;;;;;;;;;;19.80;47.77;95670.19;6122379;19;1821;-69
2022/10/31 03:48:39;;;;;;;;;;;;;;;19.79;48.23;95667.72;6094028;19;1744;-70
2022/10/31 03:50:45;;;;;;;;;;;;;;;19.84;47.73;95670.66;6119704;19;1857;-69
2022/10/31 03:52:50;;;;;;;;;;;;;;;19.85;47.74;95673.09;6120889;19;1457;-69
2022/10/31 03:54:57;;;;;;;;;;;;;;;19.88;47.95;95677.22;6122486;19;1761;-68
2022/10/31 03:57:08;;;;;;;;;;;;;;;19.89;47.92;95681.56;6122468;19;1674;-69
2022/10/31 03:59:14;;;;;;;;;;;;;;;19.88;47.74;95686.06;6106793;19;1615;-67
2022/10/31 04:01:19;;;;;;;;;;;;;;;19.88;47.77;95685.22;6106949;19;1712;-67
2022/10/31 04:03:25;;;;;;;;;;;;;;;19.89;47.96;95685.06;6119760;19;1639;-67
2022/10/31 04:05:29;;;;;;;;;;;;;;;19.88;47.83;95688.72;6120950;19;1658;-67
2022/10/31 04:07:35;;;;;;;;;;;;;;;19.92;47.88;95691.00;6119604;19;1644;-67
2022/10/31 04:09:39;;;;;;;;;;;;;;;19.92;47.45;95688.34;6121260;19;1759;-68
2022/10/31 04:11:45;;;;;;;;;;;;;;;19.42;43.69;95689.03;6093175;19;1865;-68
2022/10/31 04:13:52;;;;;;;;;;;;;;;18.87;41.31;95701.06;6122840;19;1535;-68
2022/10/31 04:15:56;;;;;;;;;;;;;;;18.78;42.71;95699.50;6121617;19;1853;-68
2022/10/31 04:18:01;;;;;;;;;;;;;;;18.76;42.03;95696.19;6120843;19;1794;-68
2022/10/31 04:20:05;;;;;;;;;;;;;;;18.65;41.23;95701.94;6121711;19;1755;-68
2022/10/31 04:22:08;;;;;;;;;;;;;;;18.67;41.27;95697.31;6107769;19;1888;-68
2022/10/31 04:24:12;;;;;;;;;;;;;;;18.65;41.01;95700.13;6103498;19;1746;-68
2022/10/31 04:26:15;;;;;;;;;;;;;;;18.61;40.69;95704.16;6121583;19;1700;-68
2022/10/31 04:28:19;;;;;;;;;;;;;;;18.59;40.06;95702.69;6121606;19;1653;-68
2022/10/31 04:30:25;;;;;;;;;;;;;;;18.54;40.17;95701.38;6118515;19;1878;-68
2022/10/31 04:32:28;;;;;;;;;;;;;;;18.33;39.84;95699.44;6120711;19;1759;-68
2022/10/31 04:34:31;;;;;;;;;;;;;;;18.23;39.73;95706.00;6094416;19;1645;-68
2022/10/31 04:36:35;;;;;;;;;;;;;;;18.20;39.67;95698.38;6119030;19;1748;-72
2022/10/31 04:38:41;;;;;;;;;;;;;;;18.57;40.46;95702.03;6119674;19;1700;-66
2022/10/31 04:40:44;;;;;;;;;;;;;;;18.75;40.63;95703.38;6121164;19;1662;-69
2022/10/31 04:42:48;;;;;;;;;;;;;;;18.81;40.67;95712.47;6122116;19;1817;-68
2022/10/31 04:44:51;;;;;;;;;;;;;;;18.96;40.63;95705.28;6108851;19;1864;-68
2022/10/31 04:46:57;;;;;;;;;;;;;;;18.85;40.92;95718.22;6104391;19;1756;-68
2022/10/31 04:49:01;;;;;;;;;;;;;;;18.87;41.06;95706.38;6119357;19;1724;-68
2022/10/31 04:51:05;;;;;;;;;;;;;;;18.80;41.06;95710.78;6117927;19;1859;-68
2022/10/31 04:53:08;;;;;;;;;;;;;;;18.88;40.99;95720.53;6119109;19;1753;-67
2022/10/31 04:55:11;;;;;;;;;;;;;;;18.83;41.33;95730.91;6119569;19;1612;-67
2022/10/31 04:57:15;;;;;;;;;;;;;;;18.87;41.34;95722.38;6093247;19;1643;-68
2022/10/31 04:59:18;;;;;;;;;;;;;;;18.90;41.46;95719.34;6120423;19;1519;-70
2022/10/31 05:01:21;;;;;;;;;;;;;;;18.97;41.14;95717.56;6118776;19;1766;-66
2022/10/31 05:03:27;;;;;;;;;;;;;;;18.90;41.62;95718.50;6120915;19;1683;-69
2022/10/31 05:05:32;;;;;;;;;;;;;;;19.12;41.62;95714.94;6120329;19;1748;-70
2022/10/31 05:07:35;;;;;;;;;;;;;;;19.24;42.33;95715.28;6110751;19;1636;-68
2022/10/31 05:09:38;;;;;;;;;;;;;;;18.73;39.78;95720.53;6104032;19;1534;-70
2022/10/31 05:11:41;;;;;;;;;;;;;;;18.55;41.74;95726.16;6119227;19;1856;-69
2022/10/31 05:13:45;;;;;;;;;;;;;;;18.82;41.67;95716.75;6120795;19;1647;-69
2022/10/31 05:15:48;;;;;;;;;;;;;;;18.97;41.36;95722.91;6118056;19;1740;-69
2022/10/31 05:17:52;;;;;;;;;;;;;;;19.00;41.53;95733.19;6120330;19;1687;-69
2022/10/31 05:19:58;;;;;;;;;;;;;;;18.77;41.81;95733.28;6093162;19;1654;-68
2022/10/31 05:22:01;;;;;;;;;;;;;;;18.83;41.78;95731.72;6122875;19;1053;-68
2022/10/31 05:24:04;;;;;;;;;;;;;;;18.90;41.20;95743.31;6118337;19;1341;-68
2022/10/31 05:26:08;;;;;;;;;;;;;;;18.80;41.31;95742.72;6121029;19;1117;-68
2022/10/31 05:28:11;;;;;;;;;;;;;;;18.80;41.52;95736.59;6121777;19;1018;-68
2022/10/31 05:30:15;;;;;;;;;;;;;;;18.86;40.91;95747.31;6120465;19;1057;-68
2022/10/31 05:32:18;;;;;;;;;;;;;;;18.81;41.08;95744.41;6093688;19;1861;-68
2022/10/31 05:34:22;;;;;;;;;;;;;;;18.92;40.87;95741.28;6122746;19;1049;-69
2022/10/31 05:36:28;;;;;;;;;;;;;;;18.81;40.99;95743.56;6123036;19;957;-68
2022/10/31 05:38:31;;;;;;;;;;;;;;;18.85;40.83;95751.00;6119589;19;1041;-68
2022/10/31 05:40:34;;;;;;;;;;;;;;;18.90;40.92;95755.78;6119546;19;1025;-68
2022/10/31 05:42:38;;;;;;;;;;;;;;;18.83;40.76;95758.34;6092674;19;1399;-68
2022/10/31 05:44:41;;;;;;;;;;;;;;;18.91;40.64;95752.94;6118621;19;1068;-68
2022/10/31 05:46:44;;;;;;;;;;;;;;;18.86;40.47;95752.66;6118107;19;1066;-68
2022/10/31 05:48:47;;;;;;;;;;;;;;;18.83;40.84;95760.19;6119523;19;1003;-68
2022/10/31 05:50:51;;;;;;;;;;;;;;;18.87;40.88;95754.31;6119302;19;1050;-68
2022/10/31 05:53:01;;;;;;;;;;;;;;;18.89;40.63;95757.59;6117146;19;1500;-68
2022/10/31 05:55:05;;;;;;;;;;;;;;;18.85;40.57;95759.00;6099035;19;1444;-68
2022/10/31 05:57:08;;;;;;;;;;;;;;;18.83;41.08;95769.00;6122789;19;1125;-69
2022/10/31 05:59:12;;;;;;;;;;;;;;;19.00;41.03;95759.00;6122485;19;1058;-69
2022/10/31 06:01:15;;;;;;;;;;;;;;;19.08;41.63;95760.75;6122109;19;1068;-69
2022/10/31 06:03:18;;;;;;;;;;;;;;;19.09;41.41;95759.72;6123265;19;1029;-69
2022/10/31 06:05:22;;;;;;;;;;;;;;;19.09;41.55;95765.88;6096955;19;1492;-69
2022/10/31 06:07:25;;;;;;;;;;;;;;;19.08;41.12;95782.06;6120181;19;1064;-69
2022/10/31 06:09:31;;;;;;;;;;;;;;;19.10;41.10;95780.06;6121918;19;1078;-69
2022/10/31 06:11:34;;;;;;;;;;;;;;;19.10;41.30;95785.38;6121235;19;1875;-69
2022/10/31 06:13:38;;;;;;;;;;;;;;;19.12;41.12;95778.84;6122423;19;1009;-68
2022/10/31 06:15:41;;;;;;;;;;;;;;;18.72;41.59;95783.59;6121448;19;977;-69
2022/10/31 06:17:45;;;;;;;;;;;;;;;18.99;41.79;95792.78;6096256;19;1395;-68
2022/10/31 06:19:48;;;;;;;;;;;;;;;19.16;41.64;95787.31;6122405;19;1041;-69
2022/10/31 06:21:52;;;;;;;;;;;;;;;19.23;41.83;95790.88;6121849;19;1093;-69
2022/10/31 06:23:55;;;;;;;;;;;;;;;19.27;41.60;95789.50;6120754;19;1258;-69
2022/10/31 06:26:01;;;;;;;;;;;;;;;19.28;41.71;95798.31;6121890;19;1058;-69
2022/10/31 06:28:04;;;;;;;;;;;;;;;19.30;41.80;95797.13;6095693;19;1340;-69
2022/10/31 06:30:08;;;;;;;;;;;;;;;19.25;41.16;95807.50;6119422;19;1109;-69
2022/10/31 06:32:13;;;;;;;;;;;;;;;19.12;41.12;95804.66;6118509;19;2165;-68
2022/10/31 06:34:16;;;;;;;;;;;;;;;19.24;41.77;95813.84;6122308;19;1042;-68
2022/10/31 06:36:19;;;;;;;;;;;;;;;19.25;41.47;95810.16;6121865;19;1065;-69
2022/10/31 06:38:22;;;;;;;;;;;;;;;19.23;41.55;95806.84;6121037;19;1108;-68
2022/10/31 06:40:26;;;;;;;;;;;;;;;19.24;41.86;95816.53;6095949;19;1201;-68
2022/10/31 06:42:32;;;;;;;;;;;;;;;19.24;41.30;95810.38;6121750;19;1025;-69
2022/10/31 06:44:35;;;;;;;;;;;;;;;19.24;41.11;95815.69;6121012;19;1008;-68
2022/10/31 06:46:38;;;;;;;;;;;;;;;19.22;41.47;95810.53;6121844;19;1036;-69
2022/10/31 06:48:43;;;;;;;;;;;;;;;19.22;41.49;95816.69;6121671;19;1351;-69
2022/10/31 06:50:46;;;;;;;;;;;;;;;19.22;41.44;95821.19;6095699;19;1601;-68
2022/10/31 06:52:52;;;;;;;;;;;;;;;19.24;41.59;95823.69;6118187;19;1853;-69
2022/10/31 06:54:56;;;;;;;;;;;;;;;19.24;41.76;95818.38;6121874;19;1052;-68
2022/10/31 06:56:59;;;;;;;;;;;;;;;19.25;42.02;95815.50;6121212;19;1105;-69
2022/10/31 06:59:05;;;;;;;;;;;;;;;19.25;41.48;95820.81;6121047;19;1345;-69
2022/10/31 07:01:08;;;;;;;;;;;;;;;19.24;41.61;95813.84;6120366;19;1046;-69
2022/10/31 07:03:13;;;;;;;;;;;;;;;19.24;41.60;95819.19;6095712;19;1442;-69
2022/10/31 07:05:16;;;;;;;;;;;;;;;19.21;41.00;95816.88;6121358;19;1025;-69
2022/10/31 07:07:21;;;;;;;;;;;;;;;19.22;41.18;95816.69;6119998;19;1061;-69
2022/10/31 07:09:24;;;;;;;;;;;;;;;19.22;41.09;95807.88;6120897;19;1026;-69
2022/10/31 07:11:27;;;;;;;;;;;;;;;19.22;41.50;95814.03;6120787;19;1861;-69
2022/10/31 07:13:30;;;;;;;;;;;;;;;19.23;41.40;95817.50;6094758;19;1312;-69
2022/10/31 07:15:39;;;;;;;;;;;;;;;19.23;41.21;95806.84;6120084;19;1009;-68
2022/10/31 07:17:43;;;;;;;;;;;;;;;19.21;41.44;95803.56;6120790;19;1128;-68
2022/10/31 07:19:46;;;;;;;;;;;;;;;19.21;41.37;95806.22;6120964;19;950;-69
2022/10/31 07:21:49;;;;;;;;;;;;;;;19.21;41.18;95804.38;6119759;19;1041;-69
2022/10/31 07:23:53;;;;;;;;;;;;;;;19.22;41.44;95797.22;6120118;19;1255;-69
2022/10/31 07:25:57;;;;;;;;;;;;;;;19.13;41.17;95795.66;6097745;19;1462;-69
2022/10/31 07:28:00;;;;;;;;;;;;;;;19.18;41.18;95787.97;6120023;19;1058;-69
2022/10/31 07:30:04;;;;;;;;;;;;;;;19.14;41.23;95792.78;6118453;19;1069;-69
2022/10/31 07:32:10;;;;;;;;;;;;;;;19.17;41.04;95796.94;6119935;19;1851;-68
2022/10/31 07:34:13;;;;;;;;;;;;;;;19.03;41.29;95792.44;6120434;19;974;-67
2022/10/31 07:36:16;;;;;;;;;;;;;;;18.94;41.61;95786.38;6094270;19;1499;-68
2022/10/31 07:38:20;;;;;;;;;;;;;;;18.94;41.67;95792.50;6119755;19;960;-68
2022/10/31 07:40:24;;;;;;;;;;;;;;;18.99;41.44;95795.47;6120493;19;1017;-69
2022/10/31 07:42:27;;;;;;;;;;;;;;;18.96;41.64;95795.00;6118976;19;1066;-69
2022/10/31 07:44:30;;;;;;;;;;;;;;;18.94;41.95;95795.19;6119263;19;1026;-69
2022/10/31 07:46:34;;;;;;;;;;;;;;;18.90;40.92;95793.06;6119814;19;1116;-69
2022/10/31 07:48:39;;;;;;;;;;;;;;;18.65;41.43;95795.09;6094737;19;1116;-69
2022/10/31 07:50:43;;;;;;;;;;;;;;;18.48;41.69;95795.25;6120095;19;1038;-68
2022/10/31 07:52:46;;;;;;;;;;;;;;;18.66;41.56;95788.78;6118060;19;1855;-69
2022/10/31 07:54:50;;;;;;;;;;;;;;;18.55;41.15;95787.34;6119613;19;966;-69
2022/10/31 07:56:53;;;;;;;;;;;;;;;18.78;41.29;95795.34;6119614;19;1054;-69
2022/10/31 07:58:56;;;;;;;;;;;;;;;18.74;40.86;95792.22;6093054;19;1603;-69
2022/10/31 08:01:00;;;;;;;;;;;;;;;18.72;40.76;95798.72;6119463;19;1011;-70
2022/10/31 08:03:03;;;;;;;;;;;;;;;18.74;40.49;95800.19;6119902;19;956;-69
2022/10/31 08:05:10;;;;;;;;;;;;;;;18.74;40.47;95796.72;6119097;19;1057;-69
2022/10/31 08:07:13;;;;;;;;;;;;;;;18.62;40.81;95792.81;6118559;19;1065;-68
2022/10/31 08:09:16;;;;;;;;;;;;;;;18.69;40.68;95797.25;6119346;19;1112;-69
2022/10/31 08:11:19;;;;;;;;;;;;;;;18.72;40.55;95796.06;6092059;19;1984;-69
2022/10/31 08:13:23;;;;;;;;;;;;;;;18.69;40.49;95793.75;6116865;19;1842;-68
2022/10/31 08:15:26;;;;;;;;;;;;;;;18.45;40.97;95784.97;6119337;19;1015;-69
2022/10/31 08:17:30;;;;;;;;;;;;;;;18.53;41.35;95787.56;6119502;19;958;-69
2022/10/31 08:19:33;;;;;;;;;;;;;;;18.81;41.33;95789.66;6119761;19;1001;-72
2022/10/31 08:21:39;;;;;;;;;;;;;;;18.93;41.45;95790.88;6093497;19;1308;-69
2022/10/31 08:23:43;;;;;;;;;;;;;;;19.04;41.32;95802.09;6118331;19;1283;-71
2022/10/31 08:25:46;;;;;;;;;;;;;;;19.09;41.13;95794.34;6119464;19;1050;-71
2022/10/31 08:27:51;;;;;;;;;;;;;;;19.12;41.40;95796.66;6118838;19;1039;-72
2022/10/31 08:29:54;;;;;;;;;;;;;;;19.14;41.46;95792.78;6116939;19;1286;-71
2022/10/31 08:32:00;;;;;;;;;;;;;;;19.18;41.58;95793.28;6118548;19;1862;-71
2022/10/31 08:34:03;;;;;;;;;;;;;;;19.20;41.26;95791.25;6094802;19;1654;-75
2022/10/31 08:36:07;;;;;;;;;;;;;;;19.21;41.64;95788.41;6118006;19;1136;-70
2022/10/31 08:38:14;;;;;;;;;;;;;;;19.23;41.78;95785.53;6118929;19;1064;-70
2022/10/31 08:40:17;;;;;;;;;;;;;;;19.26;41.66;95785.16;6119001;19;1034;-69
2022/10/31 08:42:20;;;;;;;;;;;;;;;19.27;41.66;95776.19;6118088;19;1069;-69
2022/10/31 08:44:24;;;;;;;;;;;;;;;19.29;41.70;95779.50;6092072;19;1395;-69
2022/10/31 08:46:27;;;;;;;;;;;;;;;19.31;41.71;95779.31;6118370;19;1025;-70
2022/10/31 08:48:31;;;;;;;;;;;;;;;19.32;42.08;95783.59;6118399;19;1053;-70
2022/10/31 08:50:35;;;;;;;;;;;;;;;19.33;41.88;95780.78;6118047;19;1060;-69
2022/10/31 08:52:39;;;;;;;;;;;;;;;19.35;41.85;95783.22;6117779;19;1845;-71
2022/10/31 08:54:45;;;;;;;;;;;;;;;19.36;42.22;95784.91;6116115;19;971;-71
2022/10/31 08:56:48;;;;;;;;;;;;;;;19.35;42.17;95778.75;6095988;19;1655;-68
2022/10/31 08:58:52;;;;;;;;;;;;;;;19.38;41.94;95788.22;6117735;19;1040;-71
2022/10/31 09:00:56;;;;;;;;;;;;;;;19.37;42.11;95782.03;6118804;19;1056;-71
2022/10/31 09:02:59;;;;;;;;;;;;;;;19.38;42.16;95783.72;6118406;19;1036;-71
2022/10/31 09:05:03;;;;;;;;;;;;;;;19.41;42.39;95788.66;6118045;19;1030;-72
2022/10/31 09:07:06;;;;;;;;;;;;;;;19.40;42.07;95771.00;6093334;19;1069;-72
2022/10/31 09:09:10;;;;;;;;;;;;;;;19.40;42.35;95781.66;6117432;19;1066;-71
2022/10/31 09:11:16;;;;;;;;;;;;;;;19.41;42.39;95778.00;6117888;19;1065;-71
2022/10/31 09:13:20;;;;;;;;;;;;;;;19.44;42.23;95784.81;6116376;19;1853;-70
2022/10/31 09:15:24;;;;;;;;;;;;;;;19.42;42.74;95779.66;6117336;19;1149;-69
2022/10/31 09:17:28;;;;;;;;;;;;;;;19.42;42.40;95779.66;6117572;19;913;-69
2022/10/31 09:19:32;;;;;;;;;;;;;;;19.43;42.07;95776.00;6096727;19;1457;-69
2022/10/31 09:21:35;;;;;;;;;;;;;;;19.47;42.30;95775.63;6116759;19;1038;-69
2022/10/31 09:23:38;;;;;;;;;;;;;;;19.49;42.01;95768.25;6117189;19;1278;-69
2022/10/31 09:25:42;;;;;;;;;;;;;;;19.50;41.91;95777.91;6117564;19;1014;-69
2022/10/31 09:27:48;;;;;;;;;;;;;;;19.49;42.06;95770.91;6114966;19;1454;-69
2022/10/31 09:29:51;;;;;;;;;;;;;;;19.51;41.93;95774.22;6090648;19;1172;-69
2022/10/31 09:31:54;;;;;;;;;;;;;;;19.53;41.92;95769.56;6117200;19;1046;-69
2022/10/31 09:33:58;;;;;;;;;;;;;;;19.53;41.81;95770.38;6115868;19;1908;-69
2022/10/31 09:36:01;;;;;;;;;;;;;;;19.54;41.85;95773.88;6116261;19;1034;-70
2022/10/31 09:38:05;;;;;;;;;;;;;;;19.53;42.19;95772.22;6117129;19;1054;-70
2022/10/31 09:40:09;;;;;;;;;;;;;;;19.54;42.06;95769.38;6105989;19;1483;-68
2022/10/31 09:42:23;;;;;;;;;;;;;;;19.56;42.06;95761.19;6102597;19;1062;-69
2022/10/31 09:44:34;;;;;;;;;;;;;;;19.57;41.94;95768.16;6117349;19;1136;-70
2022/10/31 09:46:49;;;;;;;;;;;;;;;19.57;41.76;95766.31;6117252;19;1002;-71
2022/10/31 09:48:58;;;;;;;;;;;;;;;19.59;42.24;95768.81;6117570;19;1058;-69
2022/10/31 09:51:05;;;;;;;;;;;;;;;19.61;42.10;95762.28;6115957;19;1179;-69
2022/10/31 09:53:12;;;;;;;;;;;;;;;19.61;42.25;95764.94;6090395;19;1867;-70
2022/10/31 09:55:19;;;;;;;;;;;;;;;19.60;42.40;95760.63;6116566;19;1289;-70
2022/10/31 09:57:27;;;;;;;;;;;;;;;19.59;42.51;95758.97;6116066;19;974;-70
2022/10/31 09:59:35;;;;;;;;;;;;;;;19.59;42.33;95758.97;6117035;19;959;-70
2022/10/31 10:01:44;;;;;;;;;;;;;;;19.62;42.93;95757.78;6116577;19;1065;-71
2022/10/31 10:03:49;;;;;;;;;;;;;;;19.61;42.88;95750.81;6091299;19;1396;-71
2022/10/31 10:05:54;;;;;;;;;;;;;;;19.62;42.80;95744.44;6117278;19;1466;-69
2022/10/31 10:08:02;;;;;;;;;;;;;;;19.62;42.69;95736.44;6122568;19;1054;-69
2022/10/31 10:10:16;;;;;;;;;;;;;;;19.62;42.83;95731.13;6123079;19;1050;-69
2022/10/31 10:12:21;;;;;;;;;;;;;;;19.62;43.00;95731.13;6119039;19;1779;-69
2022/10/31 10:14:32;;;;;;;;;;;;;;;19.62;42.87;95726.59;6107730;19;1849;-69
2022/10/31 10:16:49;;;;;;;;;;;;;;;19.62;43.22;95731.94;6109053;19;1232;-70
2022/10/31 10:19:01;;;;;;;;;;;;;;;19.63;42.71;95727.44;6122814;19;985;-70
2022/10/31 10:21:08;;;;;;;;;;;;;;;19.62;42.83;95726.59;6121849;19;1096;-69
2022/10/31 10:23:26;;;;;;;;;;;;;;;19.64;42.77;95731.75;6122357;19;1041;-70
2022/10/31 10:25:34;;;;;;;;;;;;;;;19.62;42.89;95726.59;6116929;19;1419;-69
2022/10/31 10:27:43;;;;;;;;;;;;;;;19.64;43.01;95726.44;6107549;19;1211;-70
2022/10/31 10:29:50;;;;;;;;;;;;;;;19.65;43.32;95720.06;6120527;19;1129;-70
2022/10/31 10:31:56;;;;;;;;;;;;;;;19.66;43.44;95721.72;6122133;19;1049;-69
2022/10/31 10:34:04;;;;;;;;;;;;;;;19.66;43.49;95721.72;6120062;19;1857;-70
2022/10/31 10:36:09;;;;;;;;;;;;;;;19.67;43.07;95710.06;6121952;19;1033;-69
2022/10/31 10:38:16;;;;;;;;;;;;;;;19.65;43.49;95706.75;6095711;19;1542;-70
2022/10/31 10:40:21;;;;;;;;;;;;;;;19.67;43.21;95712.72;6122263;19;1056;-70
2022/10/31 10:49:21;;;;;;;;;;;;;;;19.65;43.97;95698.75;6095089;19;1628;-70
2022/10/31 10:51:26;;;;;;;;;;;;;;;19.67;43.88;95692.22;6119478;19;1604;-73
2022/10/31 10:54:00;;;;;;;;;;;;;;;19.69;43.84;95693.84;6121090;19;1851;-72
2022/10/31 10:56:07;;;;;;;;;;;;;;;19.69;43.27;95694.72;6120898;19;1101;-73
2022/10/31 10:58:11;;;;;;;;;;;;;;;19.72;42.84;95689.00;6121523;19;1128;-74
2022/10/31 11:00:19;;;;;;;;;;;;;;;19.72;42.96;95686.31;6106261;19;1438;-70
2022/10/31 11:02:26;;;;;;;;;;;;;;;19.72;42.71;95688.13;6120216;19;989;-71
2022/10/31 11:04:32;;;;;;;;;;;;;;;19.74;42.48;95681.59;6120485;19;1128;-71
2022/10/31 11:06:35;;;;;;;;;;;;;;;19.75;42.47;95683.28;6121262;19;1025;-71